»·PEaware :: N701GT KMRY-KCRQ

N701GT :: KMRY-KCRQ

FLIGHT INFORMATION

Flight Status: Arrived
Operator: Privately registered:
United States
More flights under this callsign
Pilot: Anonymous 17564 (17564)
Aircraft: GATES LEARJET LEARJET 25
(LJ25)
More flights by this aircraft type
Origin: KMRY Monterey Peninsula
United States
Destination: KCRQ McClellan-Palomar
United States
More flights between these airports :: More routes between these airports
Route: +MRY4 SNS TILLT LEGOZ2
File this flight plan on PilotEdge
Remarks:
Altitude:
(Current/Filed)
31,000ft
Speed:
(Current/Filed)
450kts
Departed: 15-Jul-18 06:11 PM
Arrived: 15-Jul-18 07:15 PM
Distance/Time
Traveled:
306nm/1:04
Distance/Time
To Go:
Arrived

Flight Plot

Page will automatically refresh every two minutes.


Map Options




Map Legend


Flown Route
Filed Route
Departure Airport
Arrival Airport
Navaid (VOR, NDB)
Fix

Horizontal Profiles

Position Reports

Time Latitude Longitude Heading Altitude Ground
Speed
15-Jul-18 17:42 36.588822 -121.853911 245 208ft 0kts
15-Jul-18 17:43 36.588822 -121.853911 245 208ft 0kts
15-Jul-18 17:44 36.588822 -121.853911 245 208ft 0kts
15-Jul-18 17:45 36.588822 -121.853911 245 208ft 0kts
15-Jul-18 17:46 36.588822 -121.853911 245 208ft 0kts
15-Jul-18 17:47 36.588822 -121.853911 245 208ft 0kts
15-Jul-18 17:48 36.588822 -121.853911 245 208ft 0kts
15-Jul-18 17:49 36.588822 -121.853911 245 208ft 0kts
15-Jul-18 17:50 36.588822 -121.853911 245 208ft 0kts
15-Jul-18 17:51 36.588822 -121.853911 245 208ft 0kts
15-Jul-18 17:52 36.588822 -121.853911 245 208ft 0kts
15-Jul-18 17:53 36.588822 -121.853911 245 208ft 0kts
15-Jul-18 17:54 36.588822 -121.853911 245 208ft 0kts
15-Jul-18 17:55 36.588822 -121.853911 245 208ft 0kts
15-Jul-18 17:56 36.588822 -121.853911 245 208ft 0kts
15-Jul-18 17:57 36.588822 -121.853911 245 208ft 0kts
15-Jul-18 17:58 36.588822 -121.853911 245 208ft 0kts
15-Jul-18 17:59 36.588822 -121.853911 245 208ft 0kts
15-Jul-18 18:00 36.588822 -121.853911 245 208ft 0kts
15-Jul-18 18:01 36.588822 -121.853911 245 208ft 0kts
15-Jul-18 18:02 36.588946 -121.853997 37 208ft 0kts
15-Jul-18 18:03 36.588946 -121.853996 37 208ft 0kts
15-Jul-18 18:04 36.589230 -121.853506 96 208ft 4kts
15-Jul-18 18:05 36.588322 -121.850746 112 208ft 11kts
15-Jul-18 18:06 36.586940 -121.846672 112 208ft 10kts
15-Jul-18 18:07 36.585763 -121.843618 113 208ft 16kts
15-Jul-18 18:08 36.584310 -121.839314 113 208ft 6kts
15-Jul-18 18:09 36.583097 -121.835660 112 208ft 11kts
15-Jul-18 18:10 36.582874 -121.834832 93 208ft 0kts
15-Jul-18 18:11 36.582968 -121.833686 63 208ft 5kts
15-Jul-18 18:12 36.594815 -121.865372 294 2041ft 220kts
15-Jul-18 18:13 36.663242 -121.922014 336 4412ft 245kts
15-Jul-18 18:14 36.732282 -121.924716 38 6342ft 275kts
15-Jul-18 18:15 36.733482 -121.836812 113 8934ft 284kts
15-Jul-18 18:16 36.704260 -121.741452 111 11843ft 302kts
15-Jul-18 18:17 36.674841 -121.641142 113 14910ft 315kts
15-Jul-18 18:18 36.598240 -121.570200 161 18316ft 371kts
15-Jul-18 18:19 36.500699 -121.520845 160 21623ft 386kts
15-Jul-18 18:20 36.398883 -121.469569 161 24933ft 402kts
15-Jul-18 18:21 36.293149 -121.416535 161 28223ft 421kts
15-Jul-18 18:22 36.191927 -121.365888 162 31014ft 431kts
15-Jul-18 18:23 36.071145 -121.305707 161 31011ft 477kts
15-Jul-18 18:24 35.947983 -121.244448 160 30987ft 479kts
15-Jul-18 18:25 35.824194 -121.183133 160 30973ft 480kts
15-Jul-18 18:26 35.710683 -121.127100 160 30965ft 481kts
15-Jul-18 18:27 35.586190 -121.065847 160 30987ft 482kts
15-Jul-18 18:28 35.464731 -120.997708 145 30999ft 486kts
15-Jul-18 18:29 35.379886 -120.867987 126 31012ft 491kts
15-Jul-18 18:30 35.302301 -120.730100 125 31032ft 492kts
15-Jul-18 18:31 35.224700 -120.592333 125 31042ft 491kts
15-Jul-18 18:32 35.160845 -120.479319 125 31047ft 491kts
15-Jul-18 18:33 35.083407 -120.343224 128 31048ft 490kts
15-Jul-18 18:34 34.978843 -120.275884 178 31053ft 478kts
15-Jul-18 18:35 34.852242 -120.276865 181 31052ft 479kts
15-Jul-18 18:36 34.737012 -120.276099 177 31043ft 480kts
15-Jul-18 18:37 34.614699 -120.214343 146 31026ft 484kts
15-Jul-18 18:38 34.512317 -120.132205 147 31007ft 485kts
15-Jul-18 18:39 34.399174 -120.042096 147 30526ft 487kts
15-Jul-18 18:40 34.286049 -119.952292 146 29158ft 489kts
15-Jul-18 18:41 34.171949 -119.862010 146 27706ft 487kts
15-Jul-18 18:42 34.082130 -119.746828 107 26208ft 479kts
15-Jul-18 18:43 34.075340 -119.588795 89 24723ft 469kts
15-Jul-18 18:44 34.070275 -119.451057 103 23395ft 461kts
15-Jul-18 18:45 34.007826 -119.319286 125 21907ft 453kts
15-Jul-18 18:46 33.935655 -119.199373 125 20391ft 405kts
15-Jul-18 18:47 33.869142 -119.088899 124 19299ft 411kts
15-Jul-18 18:48 33.801931 -118.977532 124 18306ft 408kts
15-Jul-18 18:49 33.735461 -118.867736 125 17311ft 403kts
15-Jul-18 18:50 33.670279 -118.760386 125 16317ft 395kts
15-Jul-18 18:51 33.605947 -118.654753 125 16030ft 388kts
15-Jul-18 18:52 33.515281 -118.597145 180 15073ft 383kts
15-Jul-18 18:53 33.430718 -118.541335 112 13684ft 335kts
15-Jul-18 18:54 33.396684 -118.449246 118 11152ft 285kts
15-Jul-18 18:55 33.366138 -118.361919 97 11087ft 295kts
15-Jul-18 18:56 33.354475 -118.263512 99 11073ft 299kts
15-Jul-18 18:57 33.341678 -118.164507 99 10137ft 300kts
15-Jul-18 18:58 33.328705 -118.066785 99 8838ft 295kts
15-Jul-18 18:59 33.315865 -117.970488 99 7539ft 290kts
15-Jul-18 19:00 33.303249 -117.876418 99 7014ft 284kts
15-Jul-18 19:01 33.290614 -117.782796 99 7007ft 285kts
15-Jul-18 19:02 33.277888 -117.688991 99 6421ft 288kts
15-Jul-18 19:03 33.265255 -117.596408 99 5042ft 275kts
15-Jul-18 19:04 33.252821 -117.505875 99 5010ft 276kts
15-Jul-18 19:05 33.239442 -117.415457 108 5011ft 276kts
15-Jul-18 19:06 33.208156 -117.334048 116 4672ft 243kts
15-Jul-18 19:07 33.180567 -117.265699 114 3996ft 222kts
15-Jul-18 19:08 33.158488 -117.206362 114 3995ft 197kts
15-Jul-18 19:09 33.135685 -117.145054 114 3990ft 204kts
15-Jul-18 19:10 33.112481 -117.082703 114 3999ft 203kts
15-Jul-18 19:11 33.122721 -117.029801 1 3979ft 202kts
15-Jul-18 19:12 33.141190 -117.081441 278 3243ft 204kts
15-Jul-18 19:13 33.149277 -117.141322 262 2457ft 161kts
15-Jul-18 19:14 33.141008 -117.198175 256 1644ft 157kts
15-Jul-18 19:15 33.133762 -117.245521 255 753ft 134kts
15-Jul-18 19:16 33.128502 -117.278583 250 303ft 20kts
15-Jul-18 19:17 33.127789 -117.277590 78 303ft 18kts
15-Jul-18 19:18 33.127596 -117.275305 259 303ft 0kts

Navigation Log

Ident Type
Flight plan parsing failed, navigation log unavailable